sensor_id;sensor_type;location;lat;lon;timestamp;P1;durP1;ratioP1;P2;durP2;ratioP2
25511;SDS011;13414;44.534;18.700;2022-11-20T00:00:22;7.43;;;4.82;;
25511;SDS011;13414;44.534;18.700;2022-11-20T00:02:49;8.00;;;5.00;;
25511;SDS011;13414;44.534;18.700;2022-11-20T00:05:17;8.77;;;4.72;;
25511;SDS011;13414;44.534;18.700;2022-11-20T00:07:46;7.20;;;4.90;;
25511;SDS011;13414;44.534;18.700;2022-11-20T00:10:13;6.65;;;4.43;;
25511;SDS011;13414;44.534;18.700;2022-11-20T00:12:41;6.30;;;4.90;;
25511;SDS011;13414;44.534;18.700;2022-11-20T00:15:10;7.85;;;5.40;;
25511;SDS011;13414;44.534;18.700;2022-11-20T00:17:37;7.90;;;5.55;;
25511;SDS011;13414;44.534;18.700;2022-11-20T00:20:04;8.68;;;6.32;;
25511;SDS011;13414;44.534;18.700;2022-11-20T00:22:32;8.07;;;6.43;;
25511;SDS011;13414;44.534;18.700;2022-11-20T00:25:01;8.57;;;6.50;;
25511;SDS011;13414;44.534;18.700;2022-11-20T00:27:28;8.13;;;6.28;;
25511;SDS011;13414;44.534;18.700;2022-11-20T00:29:56;8.57;;;6.82;;
25511;SDS011;13414;44.534;18.700;2022-11-20T00:32:23;8.35;;;6.78;;
25511;SDS011;13414;44.534;18.700;2022-11-20T00:34:50;8.20;;;6.78;;
25511;SDS011;13414;44.534;18.700;2022-11-20T00:37:18;9.40;;;7.80;;
25511;SDS011;13414;44.534;18.700;2022-11-20T00:39:45;9.05;;;7.40;;
25511;SDS011;13414;44.534;18.700;2022-11-20T00:42:14;9.45;;;7.35;;
25511;SDS011;13414;44.534;18.700;2022-11-20T00:44:41;9.05;;;7.60;;
25511;SDS011;13414;44.534;18.700;2022-11-20T00:47:08;11.55;;;8.90;;
25511;SDS011;13414;44.534;18.700;2022-11-20T00:49:36;14.80;;;10.15;;
25511;SDS011;13414;44.534;18.700;2022-11-20T00:52:03;10.93;;;9.32;;
25511;SDS011;13414;44.534;18.700;2022-11-20T00:54:31;11.38;;;9.05;;
25511;SDS011;13414;44.534;18.700;2022-11-20T00:56:58;10.65;;;8.73;;
25511;SDS011;13414;44.534;18.700;2022-11-20T00:59:27;9.43;;;7.88;;
25511;SDS011;13414;44.534;18.700;2022-11-20T01:01:54;11.93;;;9.00;;
25511;SDS011;13414;44.534;18.700;2022-11-20T01:04:21;9.00;;;6.82;;
25511;SDS011;13414;44.534;18.700;2022-11-20T01:06:48;9.27;;;7.28;;
25511;SDS011;13414;44.534;18.700;2022-11-20T01:09:16;9.25;;;7.32;;
25511;SDS011;13414;44.534;18.700;2022-11-20T01:11:43;10.93;;;7.43;;
25511;SDS011;13414;44.534;18.700;2022-11-20T01:14:12;9.43;;;7.68;;
25511;SDS011;13414;44.534;18.700;2022-11-20T01:16:42;8.82;;;7.47;;
25511;SDS011;13414;44.534;18.700;2022-11-20T01:19:12;8.48;;;7.20;;
25511;SDS011;13414;44.534;18.700;2022-11-20T01:21:41;10.48;;;6.68;;
25511;SDS011;13414;44.534;18.700;2022-11-20T01:24:11;8.23;;;6.97;;
25511;SDS011;13414;44.534;18.700;2022-11-20T01:26:40;9.10;;;7.15;;
25511;SDS011;13414;44.534;18.700;2022-11-20T01:29:09;7.28;;;6.03;;
25511;SDS011;13414;44.534;18.700;2022-11-20T01:31:39;8.10;;;6.05;;
25511;SDS011;13414;44.534;18.700;2022-11-20T01:34:09;7.72;;;6.32;;
25511;SDS011;13414;44.534;18.700;2022-11-20T01:36:37;7.65;;;5.85;;
25511;SDS011;13414;44.534;18.700;2022-11-20T01:39:07;7.90;;;6.40;;
25511;SDS011;13414;44.534;18.700;2022-11-20T01:41:38;8.48;;;6.15;;
25511;SDS011;13414;44.534;18.700;2022-11-20T01:47:32;9.30;;;7.03;;
25511;SDS011;13414;44.534;18.700;2022-11-20T01:50:04;10.82;;;8.10;;
25511;SDS011;13414;44.534;18.700;2022-11-20T01:52:38;9.65;;;7.47;;
25511;SDS011;13414;44.534;18.700;2022-11-20T01:55:09;8.35;;;6.80;;
25511;SDS011;13414;44.534;18.700;2022-11-20T01:57:40;7.47;;;5.97;;
25511;SDS011;13414;44.534;18.700;2022-11-20T02:00:11;7.25;;;5.65;;
25511;SDS011;13414;44.534;18.700;2022-11-20T02:02:44;8.18;;;6.07;;
25511;SDS011;13414;44.534;18.700;2022-11-20T02:05:16;7.63;;;5.97;;
25511;SDS011;13414;44.534;18.700;2022-11-20T02:07:49;8.60;;;6.10;;
25511;SDS011;13414;44.534;18.700;2022-11-20T02:10:19;7.85;;;5.60;;
25511;SDS011;13414;44.534;18.700;2022-11-20T02:12:47;10.07;;;6.60;;
25511;SDS011;13414;44.534;18.700;2022-11-20T02:15:32;7.97;;;6.40;;
25511;SDS011;13414;44.534;18.700;2022-11-20T02:18:01;9.63;;;6.72;;
25511;SDS011;13414;44.534;18.700;2022-11-20T02:20:29;7.35;;;5.22;;
25511;SDS011;13414;44.534;18.700;2022-11-20T02:22:57;6.75;;;5.05;;
25511;SDS011;13414;44.534;18.700;2022-11-20T02:25:29;5.70;;;4.32;;
25511;SDS011;13414;44.534;18.700;2022-11-20T02:27:58;7.13;;;5.32;;
25511;SDS011;13414;44.534;18.700;2022-11-20T02:30:25;9.70;;;5.97;;
25511;SDS011;13414;44.534;18.700;2022-11-20T02:32:53;7.57;;;5.95;;
25511;SDS011;13414;44.534;18.700;2022-11-20T02:35:40;8.52;;;6.30;;
25511;SDS011;13414;44.534;18.700;2022-11-20T02:38:09;7.40;;;5.35;;
25511;SDS011;13414;44.534;18.700;2022-11-20T02:40:38;7.57;;;5.32;;
25511;SDS011;13414;44.534;18.700;2022-11-20T02:43:05;7.13;;;5.45;;
25511;SDS011;13414;44.534;18.700;2022-11-20T02:45:33;7.00;;;4.35;;
25511;SDS011;13414;44.534;18.700;2022-11-20T02:48:01;8.88;;;4.93;;
25511;SDS011;13414;44.534;18.700;2022-11-20T02:50:28;6.43;;;4.35;;
25511;SDS011;13414;44.534;18.700;2022-11-20T02:52:55;4.82;;;3.65;;
25511;SDS011;13414;44.534;18.700;2022-11-20T02:55:22;5.53;;;3.92;;
25511;SDS011;13414;44.534;18.700;2022-11-20T02:57:51;6.05;;;4.25;;
25511;SDS011;13414;44.534;18.700;2022-11-20T03:00:18;3.80;;;2.60;;
25511;SDS011;13414;44.534;18.700;2022-11-20T03:02:46;7.55;;;3.22;;
25511;SDS011;13414;44.534;18.700;2022-11-20T03:05:13;4.22;;;2.60;;
25511;SDS011;13414;44.534;18.700;2022-11-20T03:07:40;4.47;;;2.00;;
25511;SDS011;13414;44.534;18.700;2022-11-20T03:10:09;5.18;;;2.88;;
25511;SDS011;13414;44.534;18.700;2022-11-20T03:12:37;0.88;;;0.60;;
25511;SDS011;13414;44.534;18.700;2022-11-20T03:15:06;2.75;;;1.05;;
25511;SDS011;13414;44.534;18.700;2022-11-20T03:17:33;2.05;;;0.88;;
25511;SDS011;13414;44.534;18.700;2022-11-20T03:20:01;1.98;;;1.00;;
25511;SDS011;13414;44.534;18.700;2022-11-20T03:22:29;3.45;;;1.50;;
25511;SDS011;13414;44.534;18.700;2022-11-20T03:24:57;2.30;;;0.85;;
25511;SDS011;13414;44.534;18.700;2022-11-20T03:27:24;3.92;;;1.55;;
25511;SDS011;13414;44.534;18.700;2022-11-20T03:29:51;3.13;;;1.20;;
25511;SDS011;13414;44.534;18.700;2022-11-20T03:32:20;3.70;;;1.10;;
25511;SDS011;13414;44.534;18.700;2022-11-20T03:34:47;2.42;;;1.02;;
25511;SDS011;13414;44.534;18.700;2022-11-20T03:37:14;2.20;;;1.00;;
25511;SDS011;13414;44.534;18.700;2022-11-20T03:39:42;3.90;;;1.00;;
25511;SDS011;13414;44.534;18.700;2022-11-20T03:42:09;3.95;;;1.02;;
25511;SDS011;13414;44.534;18.700;2022-11-20T03:44:57;2.90;;;0.90;;
25511;SDS011;13414;44.534;18.700;2022-11-20T03:47:25;2.92;;;0.90;;
25511;SDS011;13414;44.534;18.700;2022-11-20T03:49:53;2.83;;;0.80;;
25511;SDS011;13414;44.534;18.700;2022-11-20T03:52:20;3.05;;;1.00;;
25511;SDS011;13414;44.534;18.700;2022-11-20T03:54:47;1.50;;;0.63;;
25511;SDS011;13414;44.534;18.700;2022-11-20T03:57:14;1.63;;;0.70;;
25511;SDS011;13414;44.534;18.700;2022-11-20T03:59:42;2.67;;;1.00;;
25511;SDS011;13414;44.534;18.700;2022-11-20T04:02:09;3.22;;;0.85;;
25511;SDS011;13414;44.534;18.700;2022-11-20T04:04:38;3.65;;;0.90;;
25511;SDS011;13414;44.534;18.700;2022-11-20T04:07:05;3.63;;;1.27;;
25511;SDS011;13414;44.534;18.700;2022-11-20T04:09:32;3.78;;;1.30;;
25511;SDS011;13414;44.534;18.700;2022-11-20T04:12:00;2.55;;;1.00;;
25511;SDS011;13414;44.534;18.700;2022-11-20T04:14:28;2.28;;;1.10;;
25511;SDS011;13414;44.534;18.700;2022-11-20T04:16:56;3.30;;;1.50;;
25511;SDS011;13414;44.534;18.700;2022-11-20T04:19:23;3.85;;;1.60;;
25511;SDS011;13414;44.534;18.700;2022-11-20T04:21:52;2.25;;;0.82;;
25511;SDS011;13414;44.534;18.700;2022-11-20T04:24:19;2.50;;;0.98;;
25511;SDS011;13414;44.534;18.700;2022-11-20T04:26:47;4.15;;;1.17;;
25511;SDS011;13414;44.534;18.700;2022-11-20T04:29:14;2.58;;;1.20;;
25511;SDS011;13414;44.534;18.700;2022-11-20T04:31:41;1.80;;;0.80;;
25511;SDS011;13414;44.534;18.700;2022-11-20T04:34:10;2.10;;;1.00;;
25511;SDS011;13414;44.534;18.700;2022-11-20T04:36:38;1.52;;;1.00;;
25511;SDS011;13414;44.534;18.700;2022-11-20T04:39:11;1.92;;;0.73;;
25511;SDS011;13414;44.534;18.700;2022-11-20T04:41:39;1.52;;;0.90;;
25511;SDS011;13414;44.534;18.700;2022-11-20T04:44:07;2.33;;;1.27;;
25511;SDS011;13414;44.534;18.700;2022-11-20T04:46:35;2.97;;;1.30;;
25511;SDS011;13414;44.534;18.700;2022-11-20T04:49:03;2.65;;;1.25;;
25511;SDS011;13414;44.534;18.700;2022-11-20T04:51:31;5.75;;;2.40;;
25511;SDS011;13414;44.534;18.700;2022-11-20T04:53:58;5.07;;;2.53;;
25511;SDS011;13414;44.534;18.700;2022-11-20T05:22:29;3.85;;;2.03;;
25511;SDS011;13414;44.534;18.700;2022-11-20T05:25:08;4.45;;;2.20;;
25511;SDS011;13414;44.534;18.700;2022-11-20T05:27:49;2.55;;;1.30;;
25511;SDS011;13414;44.534;18.700;2022-11-20T05:31:05;3.60;;;1.77;;
25511;SDS011;13414;44.534;18.700;2022-11-20T05:34:31;3.00;;;1.70;;
25511;SDS011;13414;44.534;18.700;2022-11-20T05:37:14;4.93;;;2.40;;
25511;SDS011;13414;44.534;18.700;2022-11-20T05:40:01;4.88;;;2.90;;
25511;SDS011;13414;44.534;18.700;2022-11-20T05:42:41;2.88;;;1.65;;
25511;SDS011;13414;44.534;18.700;2022-11-20T05:45:25;2.00;;;1.30;;
25511;SDS011;13414;44.534;18.700;2022-11-20T05:51:41;2.72;;;1.50;;
25511;SDS011;13414;44.534;18.700;2022-11-20T06:24:11;4.32;;;2.65;;
25511;SDS011;13414;44.534;18.700;2022-11-20T06:42:48;6.82;;;4.03;;
25511;SDS011;13414;44.534;18.700;2022-11-20T14:31:38;17.13;;;12.20;;
25511;SDS011;13414;44.534;18.700;2022-11-20T15:09:45;21.98;;;12.95;;
25511;SDS011;13414;44.534;18.700;2022-11-20T15:14:44;16.63;;;10.55;;
25511;SDS011;13414;44.534;18.700;2022-11-20T15:17:12;17.20;;;10.52;;
25511;SDS011;13414;44.534;18.700;2022-11-20T15:19:47;14.85;;;9.88;;
25511;SDS011;13414;44.534;18.700;2022-11-20T15:22:16;20.92;;;13.88;;
25511;SDS011;13414;44.534;18.700;2022-11-20T15:24:53;24.70;;;17.15;;
25511;SDS011;13414;44.534;18.700;2022-11-20T15:27:23;26.63;;;17.63;;
25511;SDS011;13414;44.534;18.700;2022-11-20T15:29:52;27.95;;;18.10;;
25511;SDS011;13414;44.534;18.700;2022-11-20T15:32:22;27.73;;;19.73;;
25511;SDS011;13414;44.534;18.700;2022-11-20T15:34:55;32.90;;;21.45;;
25511;SDS011;13414;44.534;18.700;2022-11-20T15:37:34;33.17;;;23.75;;
25511;SDS011;13414;44.534;18.700;2022-11-20T15:40:06;28.75;;;20.00;;
25511;SDS011;13414;44.534;18.700;2022-11-20T15:42:51;24.63;;;17.45;;
25511;SDS011;13414;44.534;18.700;2022-11-20T15:45:49;33.13;;;25.20;;
25511;SDS011;13414;44.534;18.700;2022-11-20T15:48:24;40.22;;;28.23;;
25511;SDS011;13414;44.534;18.700;2022-11-20T15:51:03;33.17;;;24.67;;
25511;SDS011;13414;44.534;18.700;2022-11-20T15:53:45;67.30;;;42.78;;
25511;SDS011;13414;44.534;18.700;2022-11-20T15:56:26;131.23;;;85.30;;
25511;SDS011;13414;44.534;18.700;2022-11-20T15:59:01;92.63;;;61.03;;
25511;SDS011;13414;44.534;18.700;2022-11-20T16:01:37;78.90;;;49.33;;
25511;SDS011;13414;44.534;18.700;2022-11-20T16:04:09;64.45;;;40.30;;
25511;SDS011;13414;44.534;18.700;2022-11-20T16:06:42;64.50;;;41.67;;
25511;SDS011;13414;44.534;18.700;2022-11-20T16:09:53;68.38;;;43.33;;
25511;SDS011;13414;44.534;18.700;2022-11-20T16:17:28;39.70;;;27.73;;
25511;SDS011;13414;44.534;18.700;2022-11-20T16:23:59;65.82;;;50.75;;
25511;SDS011;13414;44.534;18.700;2022-11-20T16:27:10;59.40;;;40.92;;
25511;SDS011;13414;44.534;18.700;2022-11-20T16:37:18;46.78;;;31.58;;
25511;SDS011;13414;44.534;18.700;2022-11-20T16:48:23;87.35;;;54.13;;
25511;SDS011;13414;44.534;18.700;2022-11-20T16:51:12;109.07;;;64.05;;
25511;SDS011;13414;44.534;18.700;2022-11-20T16:54:32;141.63;;;81.82;;
25511;SDS011;13414;44.534;18.700;2022-11-20T16:57:12;138.73;;;83.30;;
25511;SDS011;13414;44.534;18.700;2022-11-20T17:00:21;121.30;;;76.75;;
25511;SDS011;13414;44.534;18.700;2022-11-20T17:02:59;101.60;;;63.58;;
25511;SDS011;13414;44.534;18.700;2022-11-20T17:05:34;94.88;;;61.85;;
25511;SDS011;13414;44.534;18.700;2022-11-20T17:08:10;80.03;;;51.13;;
25511;SDS011;13414;44.534;18.700;2022-11-20T17:11:29;90.13;;;59.40;;
25511;SDS011;13414;44.534;18.700;2022-11-20T17:14:25;125.65;;;82.85;;
25511;SDS011;13414;44.534;18.700;2022-11-20T17:35:21;105.65;;;70.03;;
25511;SDS011;13414;44.534;18.700;2022-11-20T17:38:32;92.32;;;60.47;;
25511;SDS011;13414;44.534;18.700;2022-11-20T17:41:37;79.00;;;55.15;;
25511;SDS011;13414;44.534;18.700;2022-11-20T17:44:36;76.13;;;50.90;;
25511;SDS011;13414;44.534;18.700;2022-11-20T17:47:17;80.93;;;53.78;;
25511;SDS011;13414;44.534;18.700;2022-11-20T17:50:01;79.25;;;52.33;;
25511;SDS011;13414;44.534;18.700;2022-11-20T17:52:30;78.47;;;51.63;;
25511;SDS011;13414;44.534;18.700;2022-11-20T17:55:05;82.35;;;54.40;;
25511;SDS011;13414;44.534;18.700;2022-11-20T17:57:39;71.07;;;49.53;;
25511;SDS011;13414;44.534;18.700;2022-11-20T18:00:23;73.55;;;48.42;;
25511;SDS011;13414;44.534;18.700;2022-11-20T18:02:55;71.43;;;49.13;;
25511;SDS011;13414;44.534;18.700;2022-11-20T18:05:34;80.53;;;51.50;;
25511;SDS011;13414;44.534;18.700;2022-11-20T18:08:11;75.93;;;50.97;;
25511;SDS011;13414;44.534;18.700;2022-11-20T18:10:44;78.55;;;50.75;;
25511;SDS011;13414;44.534;18.700;2022-11-20T18:13:14;77.65;;;52.65;;
25511;SDS011;13414;44.534;18.700;2022-11-20T18:16:11;83.95;;;55.92;;
25511;SDS011;13414;44.534;18.700;2022-11-20T18:51:12;75.28;;;50.17;;
25511;SDS011;13414;44.534;18.700;2022-11-20T20:33:47;66.13;;;43.90;;
25511;SDS011;13414;44.534;18.700;2022-11-20T20:36:27;67.00;;;42.03;;
25511;SDS011;13414;44.534;18.700;2022-11-20T20:38:55;63.90;;;42.22;;
25511;SDS011;13414;44.534;18.700;2022-11-20T20:41:24;57.70;;;39.53;;
25511;SDS011;13414;44.534;18.700;2022-11-20T20:43:52;66.93;;;44.67;;
25511;SDS011;13414;44.534;18.700;2022-11-20T20:46:37;65.50;;;43.35;;
25511;SDS011;13414;44.534;18.700;2022-11-20T20:49:06;72.50;;;47.22;;
25511;SDS011;13414;44.534;18.700;2022-11-20T20:51:34;71.85;;;46.03;;
25511;SDS011;13414;44.534;18.700;2022-11-20T20:54:02;73.75;;;49.10;;
25511;SDS011;13414;44.534;18.700;2022-11-20T20:56:31;73.22;;;47.58;;
25511;SDS011;13414;44.534;18.700;2022-11-20T20:58:58;76.68;;;47.97;;
25511;SDS011;13414;44.534;18.700;2022-11-20T21:01:26;84.38;;;53.28;;
25511;SDS011;13414;44.534;18.700;2022-11-20T21:03:53;80.63;;;53.00;;
25511;SDS011;13414;44.534;18.700;2022-11-20T21:06:23;84.28;;;54.42;;
25511;SDS011;13414;44.534;18.700;2022-11-20T21:08:50;78.30;;;51.15;;
25511;SDS011;13414;44.534;18.700;2022-11-20T21:11:20;78.22;;;51.97;;
25511;SDS011;13414;44.534;18.700;2022-11-20T21:13:47;79.70;;;52.65;;
25511;SDS011;13414;44.534;18.700;2022-11-20T21:16:16;78.60;;;51.20;;
25511;SDS011;13414;44.534;18.700;2022-11-20T21:18:44;81.78;;;53.40;;
25511;SDS011;13414;44.534;18.700;2022-11-20T21:21:12;76.18;;;50.70;;
25511;SDS011;13414;44.534;18.700;2022-11-20T21:23:59;76.70;;;49.17;;
25511;SDS011;13414;44.534;18.700;2022-11-20T21:26:27;77.10;;;49.17;;
25511;SDS011;13414;44.534;18.700;2022-11-20T21:28:55;71.93;;;48.05;;
25511;SDS011;13414;44.534;18.700;2022-11-20T21:31:23;75.22;;;47.20;;
25511;SDS011;13414;44.534;18.700;2022-11-20T21:33:53;70.72;;;47.28;;
25511;SDS011;13414;44.534;18.700;2022-11-20T21:36:21;70.93;;;48.55;;
25511;SDS011;13414;44.534;18.700;2022-11-20T21:38:51;69.15;;;46.58;;
25511;SDS011;13414;44.534;18.700;2022-11-20T21:41:20;74.20;;;47.47;;
25511;SDS011;13414;44.534;18.700;2022-11-20T21:43:49;78.03;;;48.22;;
25511;SDS011;13414;44.534;18.700;2022-11-20T21:46:17;74.68;;;48.78;;
25511;SDS011;13414;44.534;18.700;2022-11-20T21:48:45;79.32;;;50.95;;
25511;SDS011;13414;44.534;18.700;2022-11-20T21:51:13;79.03;;;50.63;;
25511;SDS011;13414;44.534;18.700;2022-11-20T21:53:42;75.25;;;47.65;;
25511;SDS011;13414;44.534;18.700;2022-11-20T21:56:10;67.85;;;46.42;;
25511;SDS011;13414;44.534;18.700;2022-11-20T21:58:40;67.25;;;46.03;;
25511;SDS011;13414;44.534;18.700;2022-11-20T22:01:09;70.65;;;44.72;;
25511;SDS011;13414;44.534;18.700;2022-11-20T22:03:37;71.22;;;46.42;;
25511;SDS011;13414;44.534;18.700;2022-11-20T22:06:06;70.63;;;48.65;;
25511;SDS011;13414;44.534;18.700;2022-11-20T22:08:34;72.57;;;48.67;;
25511;SDS011;13414;44.534;18.700;2022-11-20T22:11:03;75.55;;;49.35;;
25511;SDS011;13414;44.534;18.700;2022-11-20T22:13:33;76.07;;;49.50;;
25511;SDS011;13414;44.534;18.700;2022-11-20T22:16:19;75.57;;;49.53;;
25511;SDS011;13414;44.534;18.700;2022-11-20T22:18:47;70.13;;;46.88;;
25511;SDS011;13414;44.534;18.700;2022-11-20T22:21:16;74.93;;;47.22;;
25511;SDS011;13414;44.534;18.700;2022-11-20T22:23:44;72.70;;;46.75;;
25511;SDS011;13414;44.534;18.700;2022-11-20T22:26:12;78.03;;;50.00;;
25511;SDS011;13414;44.534;18.700;2022-11-20T22:28:41;78.07;;;49.95;;
25511;SDS011;13414;44.534;18.700;2022-11-20T22:31:09;74.05;;;48.85;;
25511;SDS011;13414;44.534;18.700;2022-11-20T22:33:38;73.97;;;49.00;;
25511;SDS011;13414;44.534;18.700;2022-11-20T22:36:06;77.47;;;48.83;;
25511;SDS011;13414;44.534;18.700;2022-11-20T22:38:36;78.65;;;48.92;;
25511;SDS011;13414;44.534;18.700;2022-11-20T22:41:04;76.25;;;48.45;;
25511;SDS011;13414;44.534;18.700;2022-11-20T22:43:32;78.45;;;51.35;;
25511;SDS011;13414;44.534;18.700;2022-11-20T22:46:01;83.32;;;52.90;;
25511;SDS011;13414;44.534;18.700;2022-11-20T22:48:30;82.38;;;51.95;;
25511;SDS011;13414;44.534;18.700;2022-11-20T22:51:00;85.45;;;55.95;;
25511;SDS011;13414;44.534;18.700;2022-11-20T22:53:29;88.00;;;53.85;;
25511;SDS011;13414;44.534;18.700;2022-11-20T22:55:57;82.70;;;50.22;;
25511;SDS011;13414;44.534;18.700;2022-11-20T22:58:26;76.38;;;50.28;;
25511;SDS011;13414;44.534;18.700;2022-11-20T23:00:54;78.40;;;48.17;;
25511;SDS011;13414;44.534;18.700;2022-11-20T23:03:30;63.53;;;43.00;;
25511;SDS011;13414;44.534;18.700;2022-11-20T23:05:58;67.45;;;46.42;;
25511;SDS011;13414;44.534;18.700;2022-11-20T23:08:27;78.53;;;47.97;;
25511;SDS011;13414;44.534;18.700;2022-11-20T23:10:57;69.15;;;46.45;;
25511;SDS011;13414;44.534;18.700;2022-11-20T23:13:25;67.22;;;44.33;;
25511;SDS011;13414;44.534;18.700;2022-11-20T23:15:53;62.13;;;43.22;;
25511;SDS011;13414;44.534;18.700;2022-11-20T23:18:21;66.68;;;41.25;;
25511;SDS011;13414;44.534;18.700;2022-11-20T23:20:49;69.63;;;45.72;;
25511;SDS011;13414;44.534;18.700;2022-11-20T23:23:16;64.65;;;42.83;;
25511;SDS011;13414;44.534;18.700;2022-11-20T23:25:45;70.43;;;45.92;;
25511;SDS011;13414;44.534;18.700;2022-11-20T23:28:13;68.05;;;44.25;;
25511;SDS011;13414;44.534;18.700;2022-11-20T23:30:40;69.70;;;45.78;;
25511;SDS011;13414;44.534;18.700;2022-11-20T23:33:07;71.75;;;45.03;;
25511;SDS011;13414;44.534;18.700;2022-11-20T23:35:37;64.65;;;43.33;;
25511;SDS011;13414;44.534;18.700;2022-11-20T23:38:05;69.90;;;44.63;;
25511;SDS011;13414;44.534;18.700;2022-11-20T23:40:33;70.63;;;44.88;;
25511;SDS011;13414;44.534;18.700;2022-11-20T23:43:02;68.40;;;43.55;;
25511;SDS011;13414;44.534;18.700;2022-11-20T23:45:42;69.00;;;43.35;;
25511;SDS011;13414;44.534;18.700;2022-11-20T23:48:10;70.97;;;44.92;;
25511;SDS011;13414;44.534;18.700;2022-11-20T23:50:37;70.63;;;44.90;;
25511;SDS011;13414;44.534;18.700;2022-11-20T23:53:05;67.90;;;43.55;;
25511;SDS011;13414;44.534;18.700;2022-11-20T23:55:33;68.57;;;43.72;;
25511;SDS011;13414;44.534;18.700;2022-11-20T23:58:02;67.18;;;44.35;;
